createdAt,value
2022-11-06T00:01:07.728Z,10.50
2022-11-06T00:03:37.637Z,10.90
2022-11-06T00:06:28.936Z,11.00
2022-11-06T00:08:59.675Z,10.60
2022-11-06T00:11:28.769Z,11.00
2022-11-06T00:13:57.175Z,10.70
2022-11-06T00:16:25.522Z,11.00
2022-11-06T00:18:55.497Z,10.90
2022-11-06T00:21:28.338Z,10.90
2022-11-06T00:23:59.901Z,11.10
2022-11-06T00:26:29.716Z,11.00
2022-11-06T00:28:58.288Z,10.90
2022-11-06T00:31:30.637Z,10.60
2022-11-06T00:34:02.303Z,10.70
2022-11-06T00:36:31.575Z,10.90
2022-11-06T00:39:01.936Z,10.90
2022-11-06T00:41:30.606Z,10.50
2022-11-06T00:44:01.388Z,10.70
2022-11-06T00:46:30.849Z,10.70
2022-11-06T00:49:00.231Z,10.50
2022-11-06T00:51:31.574Z,10.60
2022-11-06T00:54:02.618Z,10.80
2022-11-06T00:56:32.465Z,10.80
2022-11-06T00:59:01.669Z,10.70
2022-11-06T01:01:32.764Z,10.60
2022-11-06T01:04:04.327Z,10.60
2022-11-06T01:06:35.591Z,10.80
2022-11-06T01:09:05.532Z,10.80
2022-11-06T01:11:59.244Z,10.70
2022-11-06T01:14:24.405Z,11.10
2022-11-06T01:16:53.139Z,11.00
2022-11-06T01:19:23.681Z,10.80
2022-11-06T01:21:56.856Z,10.80
2022-11-06T01:24:27.225Z,10.90
2022-11-06T01:29:44.665Z,10.50
2022-11-06T01:32:13.314Z,10.70
2022-11-06T01:34:42.670Z,10.60
2022-11-06T01:37:14.537Z,10.70
2022-11-06T01:39:43.612Z,10.50
2022-11-06T01:42:13.091Z,10.50
2022-11-06T01:45:09.135Z,10.50
2022-11-06T01:47:38.079Z,10.30
2022-11-06T01:50:12.212Z,10.30
2022-11-06T01:52:40.650Z,10.50
2022-11-06T01:55:13.660Z,10.60
2022-11-06T01:57:42.952Z,10.60
2022-11-06T02:00:13.666Z,10.60
2022-11-06T02:02:42.312Z,10.50
2022-11-06T02:05:11.880Z,10.60
2022-11-06T02:07:44.127Z,10.40
2022-11-06T02:10:12.447Z,10.50
2022-11-06T02:12:49.613Z,10.80
2022-11-06T02:15:27.420Z,10.50
2022-11-06T02:18:11.392Z,10.60
2022-11-06T02:20:52.438Z,10.80
2022-11-06T02:23:38.173Z,11.00
2022-11-06T02:26:24.551Z,10.70
2022-11-06T02:28:58.896Z,10.70
2022-11-06T02:31:30.417Z,10.80
2022-11-06T02:34:03.729Z,10.30
2022-11-06T02:36:37.669Z,10.40
2022-11-06T02:39:11.594Z,10.50
2022-11-06T02:41:47.621Z,10.60
2022-11-06T02:44:23.484Z,10.90
2022-11-06T02:46:55.001Z,10.80
2022-11-06T02:49:27.128Z,10.80
2022-11-06T02:52:00.091Z,10.90
2022-11-06T02:54:31.091Z,10.90
2022-11-06T02:57:04.737Z,10.90
2022-11-06T02:59:41.618Z,10.70
2022-11-06T03:02:17.047Z,10.40
2022-11-06T03:04:51.801Z,10.10
2022-11-06T03:07:30.131Z,10.20
2022-11-06T03:09:59.348Z,10.10
2022-11-06T03:12:31.232Z,10.00
2022-11-06T03:15:09.381Z,10.10
2022-11-06T03:17:43.045Z,10.30
2022-11-06T03:20:30.465Z,10.40
2022-11-06T03:23:12.191Z,10.40
2022-11-06T03:25:46.841Z,10.10
2022-11-06T03:28:24.347Z,10.30
2022-11-06T03:30:58.524Z,10.30
2022-11-06T03:33:33.704Z,10.30
2022-11-06T03:36:11.766Z,10.30
2022-11-06T03:38:42.710Z,9.90
2022-11-06T03:41:15.698Z,9.90
2022-11-06T03:43:46.576Z,10.30
2022-11-06T03:46:21.199Z,10.40
2022-11-06T03:48:53.272Z,10.60
2022-11-06T03:51:27.657Z,10.30
2022-11-06T03:54:00.145Z,10.30
2022-11-06T03:56:34.672Z,10.40
2022-11-06T03:59:05.191Z,10.50
2022-11-06T04:01:39.482Z,10.30
2022-11-06T04:04:13.859Z,10.50
2022-11-06T04:06:46.682Z,10.60
2022-11-06T04:09:34.726Z,10.60
2022-11-06T04:12:24.664Z,10.80
2022-11-06T04:14:55.969Z,10.70
2022-11-06T04:17:29.536Z,10.80
2022-11-06T04:20:02.374Z,10.30
2022-11-06T04:22:42.978Z,10.10
2022-11-06T04:25:42.040Z,10.20
2022-11-06T04:28:23.430Z,10.40
2022-11-06T04:31:02.693Z,10.20
2022-11-06T04:33:38.769Z,10.30
2022-11-06T04:36:20.044Z,10.30
2022-11-06T04:39:01.877Z,10.00
2022-11-06T04:41:36.112Z,10.20
2022-11-06T04:44:09.953Z,10.30
2022-11-06T04:46:43.304Z,10.00
2022-11-06T04:49:15.100Z,10.00
2022-11-06T04:51:47.131Z,10.30
2022-11-06T04:54:16.177Z,9.90
2022-11-06T04:56:46.540Z,10.10
2022-11-06T04:59:19.150Z,10.10
2022-11-06T05:01:47.749Z,10.20
2022-11-06T05:04:17.315Z,10.30
2022-11-06T05:06:46.243Z,10.40
2022-11-06T05:09:14.225Z,10.30
2022-11-06T05:11:42.653Z,10.30
2022-11-06T05:14:11.073Z,10.50
2022-11-06T05:16:39.155Z,10.40
2022-11-06T05:19:07.201Z,9.90
2022-11-06T05:21:55.131Z,10.30
2022-11-06T05:24:23.174Z,10.20
2022-11-06T05:26:56.151Z,10.30
2022-11-06T05:29:27.758Z,10.50
2022-11-06T05:31:56.513Z,10.70
2022-11-06T05:34:24.704Z,10.90
2022-11-06T05:36:54.064Z,10.60
2022-11-06T05:39:23.199Z,10.40
2022-11-06T05:41:51.183Z,10.40
2022-11-06T05:44:19.997Z,10.50
2022-11-06T05:46:49.894Z,10.60
2022-11-06T05:49:18.858Z,10.30
2022-11-06T05:51:47.774Z,9.90
2022-11-06T05:54:17.324Z,10.20
2022-11-06T05:56:45.421Z,10.30
2022-11-06T05:59:13.979Z,10.30
2022-11-06T06:01:42.463Z,10.50
2022-11-06T06:04:11.105Z,10.60
2022-11-06T06:06:40.199Z,10.60
2022-11-06T06:09:09.759Z,10.50
2022-11-06T06:11:39.517Z,10.50
2022-11-06T06:14:07.588Z,10.60
2022-11-06T06:16:36.275Z,10.60
2022-11-06T06:19:04.502Z,10.60
2022-11-06T06:21:32.466Z,10.50
2022-11-06T06:24:02.073Z,10.50
2022-11-06T06:26:30.247Z,10.70
2022-11-06T06:29:03.549Z,10.80
2022-11-06T06:31:31.948Z,10.90
2022-11-06T06:33:59.961Z,10.90
2022-11-06T06:36:28.710Z,10.70
2022-11-06T06:38:57.083Z,10.90
2022-11-06T06:41:25.262Z,10.80
2022-11-06T06:43:53.233Z,10.80
2022-11-06T06:46:25.404Z,10.70
2022-11-06T06:48:53.899Z,10.60
2022-11-06T06:51:24.163Z,10.50
2022-11-06T06:53:53.709Z,10.30
2022-11-06T06:56:21.757Z,10.60
2022-11-06T06:58:55.776Z,10.20
2022-11-06T07:01:26.174Z,10.30
2022-11-06T07:03:58.691Z,10.40
2022-11-06T07:06:31.803Z,10.60
2022-11-06T07:08:59.777Z,10.40
2022-11-06T07:11:30.295Z,10.50
2022-11-06T07:13:58.356Z,10.40
2022-11-06T07:16:31.773Z,10.40
2022-11-06T07:18:59.960Z,10.40
2022-11-06T07:21:28.025Z,10.30
2022-11-06T07:23:56.854Z,10.30
2022-11-06T07:26:24.823Z,10.40
2022-11-06T07:28:53.389Z,10.40
2022-11-06T07:31:21.800Z,10.40
2022-11-06T07:33:51.296Z,10.50
2022-11-06T07:36:21.788Z,10.40
2022-11-06T07:38:49.851Z,10.60
2022-11-06T07:41:18.066Z,10.80
2022-11-06T07:43:46.612Z,10.70
2022-11-06T07:46:14.788Z,10.70
2022-11-06T07:48:43.042Z,10.60
2022-11-06T07:51:15.527Z,10.90
2022-11-06T07:53:43.630Z,10.90
2022-11-06T07:56:12.547Z,11.00
2022-11-06T07:58:41.179Z,11.00
2022-11-06T08:01:18.514Z,10.90
2022-11-06T08:03:47.964Z,11.00
2022-11-06T08:06:20.407Z,11.20
2022-11-06T08:08:49.551Z,11.20
2022-11-06T08:11:17.995Z,10.90
2022-11-06T08:13:47.309Z,10.90
2022-11-06T08:16:16.529Z,10.70
2022-11-06T08:18:44.681Z,11.10
2022-11-06T08:21:12.760Z,11.00
2022-11-06T08:23:42.694Z,10.80
2022-11-06T08:26:12.432Z,10.70
2022-11-06T08:28:41.042Z,10.90
2022-11-06T08:31:10.409Z,11.00
2022-11-06T08:33:40.115Z,10.70
2022-11-06T08:36:11.299Z,10.80
2022-11-06T08:38:39.998Z,10.90
2022-11-06T08:41:11.512Z,10.90
2022-11-06T08:43:40.689Z,10.90
2022-11-06T08:46:11.650Z,11.10
2022-11-06T08:48:40.406Z,11.30
2022-11-06T08:51:08.553Z,11.20
2022-11-06T08:53:37.092Z,11.40
2022-11-06T08:56:07.833Z,11.30
2022-11-06T08:58:37.420Z,11.20
2022-11-06T09:01:05.572Z,11.40
2022-11-06T09:03:34.092Z,11.40
2022-11-06T09:06:02.270Z,11.60
2022-11-06T09:08:31.025Z,11.40
2022-11-06T09:10:59.729Z,11.40
2022-11-06T09:13:27.785Z,11.40
2022-11-06T09:15:57.588Z,11.60
2022-11-06T09:18:25.732Z,11.60
2022-11-06T09:20:56.923Z,11.70
2022-11-06T09:23:26.822Z,11.90
2022-11-06T09:25:54.827Z,12.00
2022-11-06T09:28:23.406Z,12.40
2022-11-06T09:30:52.414Z,12.40
2022-11-06T09:33:21.849Z,12.30
2022-11-06T09:35:50.164Z,12.50
2022-11-06T09:38:19.383Z,12.40
2022-11-06T09:40:50.678Z,12.30
2022-11-06T09:43:58.180Z,12.30
2022-11-06T09:46:25.629Z,12.60
2022-11-06T09:49:01.853Z,12.50
2022-11-06T09:51:35.740Z,12.50
2022-11-06T09:54:08.826Z,12.70
2022-11-06T09:56:40.782Z,12.50
2022-11-06T09:59:15.677Z,12.30
2022-11-06T10:01:47.300Z,12.60
2022-11-06T10:04:32.313Z,12.40
2022-11-06T10:07:00.504Z,12.70
2022-11-06T10:09:29.817Z,12.90
2022-11-06T10:12:14.421Z,12.80
2022-11-06T10:14:54.346Z,12.90
2022-11-06T10:17:35.866Z,12.60
2022-11-06T10:20:20.892Z,12.90
2022-11-06T10:23:05.856Z,13.00
2022-11-06T10:25:46.820Z,13.20
2022-11-06T10:28:46.052Z,12.90
2022-11-06T10:31:22.628Z,12.80
2022-11-06T10:33:58.801Z,13.10
2022-11-06T10:36:32.829Z,13.10
2022-11-06T10:39:04.878Z,13.10
2022-11-06T10:41:37.814Z,13.30
2022-11-06T10:44:16.507Z,13.20
2022-11-06T10:46:50.094Z,13.40
2022-11-06T10:49:26.569Z,13.70
2022-11-06T10:52:32.191Z,13.90
2022-11-06T10:55:26.213Z,13.80
2022-11-06T10:57:58.353Z,13.80
2022-11-06T11:00:27.083Z,14.20
2022-11-06T11:02:59.201Z,14.10
2022-11-06T11:05:36.529Z,14.40
2022-11-06T11:08:07.256Z,14.40
2022-11-06T11:10:38.161Z,14.40
2022-11-06T11:13:08.942Z,14.60
2022-11-06T11:15:45.672Z,14.60
2022-11-06T11:18:20.270Z,14.30
2022-11-06T11:20:52.737Z,14.60
2022-11-06T11:23:27.112Z,15.00
2022-11-06T11:25:59.414Z,15.10
2022-11-06T11:28:30.697Z,15.00
2022-11-06T11:31:07.041Z,14.80
2022-11-06T11:33:36.481Z,15.00
2022-11-06T11:36:06.618Z,14.50
2022-11-06T11:38:38.939Z,14.30
2022-11-06T11:41:09.485Z,14.10
2022-11-06T11:43:37.540Z,14.20
2022-11-06T11:46:29.623Z,14.40
2022-11-06T11:48:58.702Z,13.50
2022-11-06T11:51:34.911Z,13.40
2022-11-06T11:54:16.410Z,13.50
2022-11-06T11:57:04.047Z,13.50
2022-11-06T11:59:38.750Z,13.50
2022-11-06T12:02:22.169Z,13.60
2022-11-06T12:04:58.626Z,13.40
2022-11-06T12:07:32.745Z,13.50
2022-11-06T12:10:05.286Z,13.60
2022-11-06T12:12:35.366Z,12.90
2022-11-06T12:15:21.503Z,13.20
2022-11-06T12:17:55.455Z,13.30
2022-11-06T12:20:29.922Z,13.10
2022-11-06T12:23:08.427Z,13.20
2022-11-06T12:25:43.848Z,13.30
2022-11-06T12:28:17.301Z,13.20
2022-11-06T12:30:51.934Z,13.40
2022-11-06T12:33:45.551Z,13.70
2022-11-06T12:36:17.774Z,14.20
2022-11-06T12:38:50.921Z,14.50
2022-11-06T12:41:28.154Z,14.40
2022-11-06T12:43:58.326Z,14.30
2022-11-06T12:46:40.748Z,14.50
2022-11-06T12:49:49.088Z,14.60
2022-11-06T12:52:30.219Z,14.60
2022-11-06T12:55:38.104Z,14.70
2022-11-06T12:58:39.764Z,14.60
2022-11-06T13:01:17.371Z,14.30
2022-11-06T13:04:06.224Z,14.30
2022-11-06T13:06:59.662Z,14.40
2022-11-06T13:09:34.959Z,14.60
2022-11-06T13:12:08.967Z,14.60
2022-11-06T13:14:46.636Z,14.20
2022-11-06T13:17:29.436Z,14.10
2022-11-06T13:32:01.808Z,13.40
2022-11-06T13:34:37.888Z,13.40
2022-11-06T13:37:13.995Z,13.40
2022-11-06T13:39:45.348Z,13.40
2022-11-06T13:42:23.330Z,13.30
2022-11-06T13:44:52.653Z,13.40
2022-11-06T13:47:28.802Z,13.60
2022-11-06T13:50:04.286Z,13.70
2022-11-06T13:52:39.961Z,13.30
2022-11-06T13:55:22.017Z,12.90
2022-11-06T13:58:17.230Z,13.00
2022-11-06T14:01:00.938Z,13.00
2022-11-06T14:03:57.381Z,13.00
2022-11-06T14:06:27.464Z,13.20
2022-11-06T14:08:58.095Z,13.40
2022-11-06T14:11:29.429Z,13.40
2022-11-06T14:14:01.601Z,13.40
2022-11-06T14:16:32.820Z,13.60
2022-11-06T14:19:12.273Z,13.50
2022-11-06T14:21:52.373Z,13.50
2022-11-06T14:24:36.046Z,13.50
2022-11-06T14:27:08.930Z,13.30
2022-11-06T14:30:04.984Z,13.30
2022-11-06T14:32:47.443Z,13.20
2022-11-06T14:35:49.810Z,13.40
2022-11-06T14:38:39.418Z,13.10
2022-11-06T14:41:42.873Z,13.50
2022-11-06T14:44:21.838Z,13.30
2022-11-06T14:46:52.271Z,13.50
2022-11-06T14:49:29.341Z,13.90
2022-11-06T14:52:01.472Z,14.10
2022-11-06T14:54:38.584Z,14.10
2022-11-06T14:57:09.781Z,13.90
2022-11-06T14:59:39.705Z,13.80
2022-11-06T15:02:19.793Z,13.70
2022-11-06T15:04:53.907Z,13.30
2022-11-06T15:08:03.715Z,12.90
2022-11-06T15:13:34.016Z,13.40
2022-11-06T15:16:10.879Z,13.60
2022-11-06T15:18:47.551Z,13.60
2022-11-06T15:21:25.416Z,13.80
2022-11-06T15:24:05.312Z,13.90
2022-11-06T15:26:41.343Z,14.00
2022-11-06T15:29:21.738Z,13.70
2022-11-06T15:31:53.766Z,13.60
2022-11-06T15:34:36.938Z,13.70
2022-11-06T15:37:18.607Z,13.60
2022-11-06T15:39:57.701Z,13.70
2022-11-06T15:42:34.778Z,13.60
2022-11-06T15:45:09.681Z,13.30
2022-11-06T15:47:38.258Z,13.10
2022-11-06T15:50:19.287Z,13.20
2022-11-06T15:52:51.993Z,13.10
2022-11-06T15:55:31.034Z,13.10
2022-11-06T15:58:09.377Z,12.80
2022-11-06T16:00:42.261Z,13.00
2022-11-06T16:03:16.232Z,12.70
2022-11-06T16:05:45.481Z,12.90
2022-11-06T16:08:16.162Z,12.90
2022-11-06T16:10:48.095Z,12.60
2022-11-06T16:13:24.093Z,12.50
2022-11-06T16:15:55.751Z,12.50
2022-11-06T16:18:28.677Z,12.40
2022-11-06T16:21:03.067Z,12.50
2022-11-06T16:23:38.980Z,12.50
2022-11-06T16:26:10.912Z,12.60
2022-11-06T16:28:54.376Z,12.60
2022-11-06T16:31:25.054Z,12.80
2022-11-06T16:33:59.889Z,12.80
2022-11-06T16:36:29.870Z,12.30
2022-11-06T16:39:48.186Z,12.40
2022-11-06T16:42:29.308Z,12.30
2022-11-06T16:45:18.661Z,12.20
2022-11-06T16:48:31.578Z,12.30
2022-11-06T16:51:02.856Z,12.50
2022-11-06T16:53:33.303Z,12.30
2022-11-06T16:56:04.062Z,12.60
2022-11-06T16:58:38.563Z,12.80
2022-11-06T17:01:08.358Z,12.90
2022-11-06T17:03:41.165Z,12.80
2022-11-06T17:06:22.310Z,12.80
2022-11-06T17:09:09.654Z,13.00
2022-11-06T17:11:38.714Z,12.70
2022-11-06T17:14:19.602Z,12.20
2022-11-06T17:16:51.624Z,12.50
2022-11-06T17:19:22.196Z,12.20
2022-11-06T17:21:53.382Z,12.20
2022-11-06T17:24:38.325Z,12.30
2022-11-06T17:27:07.269Z,12.40
2022-11-06T17:29:39.102Z,12.40
2022-11-06T17:32:08.517Z,11.90
2022-11-06T17:34:36.988Z,11.90
2022-11-06T17:37:05.220Z,12.10
2022-11-06T17:39:35.896Z,11.90
2022-11-06T17:42:07.456Z,11.50
2022-11-06T17:44:35.688Z,11.50
2022-11-06T17:47:03.859Z,11.50
2022-11-06T17:49:34.097Z,11.40
2022-11-06T17:52:04.233Z,11.60
2022-11-06T17:54:36.947Z,11.40
2022-11-06T17:57:07.494Z,11.60
2022-11-06T17:59:35.989Z,11.70
2022-11-06T18:02:04.185Z,11.70
2022-11-06T18:04:35.495Z,11.80
2022-11-06T18:07:03.541Z,11.70
2022-11-06T18:09:31.891Z,11.70
2022-11-06T18:12:00.028Z,11.90
2022-11-06T18:14:31.048Z,12.00
2022-11-06T18:17:00.096Z,11.70
2022-11-06T18:19:35.390Z,11.70
2022-11-06T18:22:18.092Z,11.40
2022-11-06T18:24:46.430Z,11.50
2022-11-06T18:27:14.499Z,11.40
2022-11-06T18:29:43.910Z,11.20
2022-11-06T18:32:11.981Z,11.20
2022-11-06T18:34:40.432Z,11.40
2022-11-06T18:37:09.842Z,11.40
2022-11-06T18:39:39.518Z,11.80
2022-11-06T18:42:07.949Z,11.70
2022-11-06T18:44:41.520Z,11.70
2022-11-06T18:47:09.562Z,11.50
2022-11-06T18:49:37.587Z,11.10
2022-11-06T18:52:06.087Z,11.20
2022-11-06T18:54:36.342Z,11.50
2022-11-06T18:57:04.996Z,11.20
2022-11-06T18:59:32.985Z,11.10
2022-11-06T19:02:01.874Z,10.70
2022-11-06T19:04:32.329Z,11.20
2022-11-06T19:07:00.872Z,10.80
2022-11-06T19:09:32.315Z,10.80
2022-11-06T19:12:04.817Z,10.70
2022-11-06T19:14:33.448Z,11.20
2022-11-06T19:17:01.490Z,11.00
2022-11-06T19:19:30.081Z,11.30
2022-11-06T19:21:59.639Z,11.40
2022-11-06T19:24:27.881Z,11.40
2022-11-06T19:27:01.853Z,11.30
2022-11-06T19:29:36.527Z,11.30
2022-11-06T19:32:05.199Z,11.20
2022-11-06T19:34:38.873Z,11.30
2022-11-06T19:37:07.844Z,11.30
2022-11-06T19:39:37.172Z,11.30
2022-11-06T19:42:05.863Z,11.60
2022-11-06T19:44:35.206Z,11.70
2022-11-06T19:47:03.990Z,11.70
2022-11-06T19:49:32.202Z,11.60
2022-11-06T19:52:42.974Z,11.60
2022-11-06T19:54:48.520Z,11.80
2022-11-06T19:57:28.796Z,11.30
2022-11-06T19:59:59.911Z,11.60
2022-11-06T20:02:29.151Z,11.60
2022-11-06T20:04:57.485Z,11.70
2022-11-06T20:07:26.428Z,11.70
2022-11-06T20:09:57.538Z,11.80
2022-11-06T20:12:26.310Z,11.60
2022-11-06T20:14:54.420Z,11.70
2022-11-06T20:17:24.337Z,11.70
2022-11-06T20:19:52.396Z,11.90
2022-11-06T20:22:20.821Z,11.90
2022-11-06T20:24:49.595Z,11.90
2022-11-06T20:27:18.479Z,11.70
2022-11-06T20:29:46.499Z,11.60
2022-11-06T20:32:19.238Z,11.70
2022-11-06T20:34:49.661Z,11.50
2022-11-06T20:37:18.252Z,11.50
2022-11-06T20:39:46.873Z,11.70
2022-11-06T20:42:15.685Z,11.50
2022-11-06T20:47:31.214Z,11.40
2022-11-06T20:50:03.976Z,11.60
2022-11-06T20:52:32.529Z,11.50
2022-11-06T20:55:00.560Z,11.60
2022-11-06T20:57:29.005Z,11.70
2022-11-06T20:59:57.371Z,11.50
2022-11-06T21:02:25.497Z,11.50
2022-11-06T21:05:01.455Z,11.50
2022-11-06T21:07:29.550Z,11.50
2022-11-06T21:09:57.601Z,11.80
2022-11-06T21:12:25.968Z,11.80
2022-11-06T21:14:54.091Z,11.70
2022-11-06T21:17:22.505Z,11.50
2022-11-06T21:19:50.991Z,11.70
2022-11-06T21:22:20.444Z,11.80
2022-11-06T21:24:48.518Z,11.90
2022-11-06T21:27:17.320Z,11.50
2022-11-06T21:29:45.797Z,11.50
2022-11-06T21:32:16.933Z,11.70
2022-11-06T21:34:45.618Z,11.70
2022-11-06T21:37:13.625Z,11.40
2022-11-06T21:39:47.292Z,11.40
2022-11-06T21:42:15.334Z,11.60
2022-11-06T21:44:43.932Z,11.80
2022-11-06T21:47:12.262Z,11.80
2022-11-06T21:49:48.219Z,11.90
2022-11-06T21:52:34.072Z,11.80
2022-11-06T21:55:24.633Z,12.00
2022-11-06T21:58:01.229Z,11.80
2022-11-06T22:00:29.722Z,11.80
2022-11-06T22:02:58.400Z,11.80
2022-11-06T22:05:26.518Z,11.60
2022-11-06T22:07:55.006Z,11.60
2022-11-06T22:10:25.314Z,11.70
2022-11-06T22:12:55.812Z,11.70
2022-11-06T22:15:24.370Z,11.60
2022-11-06T22:17:55.845Z,11.60
2022-11-06T22:20:23.904Z,11.60
2022-11-06T22:22:53.974Z,11.70
2022-11-06T22:25:24.174Z,11.80
2022-11-06T22:27:54.939Z,11.90
2022-11-06T22:30:23.493Z,11.60
2022-11-06T22:32:51.482Z,11.80
2022-11-06T22:35:19.614Z,11.50
2022-11-06T22:37:47.604Z,11.50
2022-11-06T22:40:16.653Z,11.60
2022-11-06T22:42:49.629Z,11.70
2022-11-06T22:48:04.012Z,11.80
2022-11-06T22:50:32.005Z,11.90
2022-11-06T22:53:00.256Z,11.90
2022-11-06T22:55:28.224Z,11.80
2022-11-06T22:57:58.216Z,11.80
2022-11-06T23:00:26.974Z,11.80
2022-11-06T23:02:55.080Z,11.80
2022-11-06T23:05:24.266Z,12.10
2022-11-06T23:07:52.265Z,12.30
2022-11-06T23:10:28.690Z,12.00
2022-11-06T23:13:06.860Z,12.00
2022-11-06T23:15:35.464Z,11.80
2022-11-06T23:18:03.532Z,11.60
2022-11-06T23:20:33.124Z,11.80
2022-11-06T23:23:03.520Z,11.80
2022-11-06T23:25:32.242Z,11.80
2022-11-06T23:28:02.440Z,11.70
2022-11-06T23:30:31.588Z,11.90
2022-11-06T23:33:00.043Z,12.10
2022-11-06T23:35:32.578Z,12.00
2022-11-06T23:38:01.803Z,12.10
2022-11-06T23:40:29.864Z,12.10
2022-11-06T23:42:58.291Z,11.90
2022-11-06T23:45:48.305Z,11.90
2022-11-06T23:48:17.377Z,12.20
2022-11-06T23:50:46.952Z,12.00
2022-11-06T23:53:16.943Z,12.00
2022-11-06T23:55:45.497Z,12.10
2022-11-06T23:58:16.800Z,12.50
